Time;durP1;ratioP1;P1;durP2;ratioP2;P2;SDS_P1;SDS_P2;PMS_P1;PMS_P2;Temp;Humidity;BMP_temperature;BMP_pressure;BME280_temperature;BME280_humidity;BME280_pressure;Samples;Min_cycle;Max_cycle;Signal;HPM_P1;HPM_P2
2022/03/18 00:02:17;;;;;;;31.13;23.70;;;;;;;5.88;54.70;100808.06;5026075;28;20053;-65
2022/03/18 00:04:50;;;;;;;26.08;20.52;;;;;;;5.81;54.86;100811.66;5025770;28;20042;-65
2022/03/18 00:07:24;;;;;;;28.90;20.10;;;;;;;5.80;54.99;100809.06;5025723;28;20297;-65
2022/03/18 00:09:56;;;;;;;33.67;23.13;;;;;;;5.77;54.95;100813.47;5025725;28;20049;-65
2022/03/18 00:12:28;;;;;;;27.67;21.92;;;;;;;5.77;54.64;100821.34;5025849;28;20045;-65
2022/03/18 00:15:00;;;;;;;27.33;20.45;;;;;;;5.82;54.48;100812.53;5025920;28;20037;-65
2022/03/18 00:17:32;;;;;;;26.20;20.80;;;;;;;5.84;54.51;100822.16;5025610;28;20042;-65
2022/03/18 00:20:07;;;;;;;26.60;22.17;;;;;;;5.88;54.26;100820.34;5025824;28;20049;-65
2022/03/18 00:22:42;;;;;;;27.30;19.58;;;;;;;5.90;54.38;100810.69;5025848;28;20049;-65
2022/03/18 00:25:14;;;;;;;;;;;;;;;5.84;56.36;100823.91;5026044;28;20049;-65
2022/03/18 00:27:47;;;;;;;26.52;21.45;;;;;;;5.82;54.26;100821.31;5025560;28;20070;-65
2022/03/18 00:30:19;;;;;;;28.92;21.10;;;;;;;5.85;54.61;100826.53;5025737;28;20053;-65
2022/03/18 00:32:53;;;;;;;27.27;22.25;;;;;;;5.87;54.89;100821.25;5025489;28;20065;-66
2022/03/18 00:35:25;;;;;;;30.00;21.13;;;;;;;5.87;55.01;100816.84;5025451;28;20045;-66
2022/03/18 00:38:00;;;;;;;26.60;20.25;;;;;;;5.92;55.19;100825.56;5025454;28;20042;-66
2022/03/18 00:40:33;;;;;;;24.25;18.92;;;;;;;5.90;55.07;100816.81;5025711;28;20064;-66
2022/03/18 00:43:05;;;;;;;28.08;20.48;;;;;;;5.89;54.67;100815.06;5025400;28;20042;-66
2022/03/18 00:45:37;;;;;;;27.60;20.98;;;;;;;5.88;54.97;100825.63;5025372;28;20179;-66
2022/03/18 00:53:52;;;;;;;27.27;19.90;;;;;;;5.81;55.73;100822.19;5029405;28;20049;-66
2022/03/18 00:56:24;;;;;;;25.85;21.08;;;;;;;5.86;56.07;100823.00;5029056;28;20045;-66
2022/03/18 00:58:57;;;;;;;26.60;20.30;;;;;;;5.82;56.48;100839.72;5029079;28;20042;-66
2022/03/18 01:01:29;;;;;;;24.10;19.83;;;;;;;5.75;56.77;100840.69;5029052;28;20053;-66
2022/03/18 01:04:02;;;;;;;24.90;19.42;;;;;;;5.77;56.35;100838.91;5028949;28;20049;-66
2022/03/18 01:06:34;;;;;;;24.83;18.58;;;;;;;5.78;55.94;100838.88;5028951;28;20042;-66
2022/03/18 01:09:08;;;;;;;24.40;19.02;;;;;;;5.78;57.23;100840.66;5029163;28;20285;-66
2022/03/18 01:11:40;;;;;;;22.92;17.80;;;;;;;5.68;58.15;100839.00;5028737;28;20187;-66
2022/03/18 01:14:13;;;;;;;26.55;20.25;;;;;;;5.70;57.19;100842.50;5028763;28;20041;-66
2022/03/18 01:16:45;;;;;;;23.33;18.45;;;;;;;5.72;57.41;100838.09;5028761;28;20042;-66
2022/03/18 01:19:19;;;;;;;25.67;20.13;;;;;;;5.74;56.96;100838.94;5028984;28;20290;-66
2022/03/18 01:21:51;;;;;;;26.55;19.90;;;;;;;5.74;56.77;100834.53;5028946;28;20046;-66
2022/03/18 01:24:23;;;;;;;22.42;18.63;;;;;;;5.72;57.83;100836.31;5028857;28;20049;-66
2022/03/18 01:26:51;;;;;;;24.52;18.13;;;;;;;5.72;56.97;100840.72;5028579;28;20092;-66
2022/03/18 01:29:22;;;;;;;26.35;18.10;;;;;;;5.72;58.04;100844.22;5028792;28;20092;-66
2022/03/18 01:31:52;;;;;;;29.92;20.35;;;;;;;5.74;56.93;100836.31;5028660;28;20049;-66
2022/03/18 01:34:22;;;;;;;25.30;18.98;;;;;;;5.78;57.18;100838.00;5028706;28;20294;-66
2022/03/18 01:36:53;;;;;;;24.20;17.88;;;;;;;5.82;57.76;100844.09;5028639;28;20043;-66
2022/03/18 01:39:24;;;;;;;25.80;17.75;;;;;;;5.76;58.71;100850.31;5028617;28;20049;-66
2022/03/18 01:41:53;;;;;;;27.20;21.65;;;;;;;5.71;57.85;100850.38;5028256;28;20213;-66
2022/03/18 01:44:23;;;;;;;23.48;17.48;;;;;;;5.72;57.99;100846.84;5028073;28;20042;-66
2022/03/18 01:46:53;;;;;;;23.10;17.90;;;;;;;5.71;57.55;100841.59;5027994;28;20042;-66
2022/03/18 01:49:24;;;;;;;25.48;18.48;;;;;;;5.73;58.42;100847.72;5028127;28;20049;-66
2022/03/18 01:51:54;;;;;;;25.90;18.60;;;;;;;5.73;58.24;100858.25;5028312;28;20041;-66
2022/03/18 01:57:19;;;;;;;24.40;18.33;;;;;;;5.69;58.75;100856.53;5028009;28;20041;-66
2022/03/18 01:59:52;;;;;;;24.55;17.88;;;;;;;5.80;57.58;100851.16;5027201;28;20038;-66
2022/03/18 02:02:25;;;;;;;29.60;20.05;;;;;;;5.78;57.93;100853.81;5027916;28;20046;-66
2022/03/18 02:04:58;;;;;;;23.75;18.45;;;;;;;5.77;57.90;100860.81;5028144;28;20038;-66
2022/03/18 02:07:30;;;;;;;26.90;20.20;;;;;;;5.80;57.45;100857.28;5028108;28;20053;-65
2022/03/18 02:10:05;;;;;;;25.60;18.27;;;;;;;5.78;57.79;100875.72;5027771;28;20042;-65
2022/03/18 02:12:37;;;;;;;28.75;21.27;;;;;;;5.83;57.32;100869.53;5027590;28;20298;-66
2022/03/18 02:15:10;;;;;;;29.75;20.70;;;;;;;5.82;57.29;100875.69;5027647;28;20046;-66
2022/03/18 02:17:42;;;;;;;25.38;19.73;;;;;;;5.87;57.05;100869.47;5027119;28;20041;-66
2022/03/18 02:20:15;;;;;;;26.30;20.63;;;;;;;5.88;57.16;100865.09;5027825;28;20049;-66
2022/03/18 02:22:48;;;;;;;27.60;22.40;;;;;;;5.82;57.77;100873.91;5026681;28;20046;-66
2022/03/18 02:25:20;;;;;;;26.20;20.02;;;;;;;5.85;57.48;100862.50;5027437;28;20202;-66
2022/03/18 02:27:58;;;;;;;25.38;19.83;;;;;;;5.84;58.13;100871.28;5027699;28;20042;-66
2022/03/18 02:30:33;;;;;;;27.05;20.77;;;;;;;5.82;57.29;100878.31;5027627;28;20198;-66
2022/03/18 02:33:05;;;;;;;26.48;20.80;;;;;;;5.78;57.33;100878.34;5027533;28;20050;-66
2022/03/18 02:35:37;;;;;;;28.48;21.77;;;;;;;5.82;57.21;100883.56;5027522;28;20037;-66
2022/03/18 02:38:11;;;;;;;29.70;21.52;;;;;;;5.75;57.63;100883.66;5027201;28;20049;-66
2022/03/18 02:40:43;;;;;;;26.05;19.42;;;;;;;5.73;57.26;100881.91;5027474;28;20041;-66
2022/03/18 02:43:16;;;;;;;26.88;21.73;;;;;;;5.28;57.30;100823.66;5027385;28;20045;-66
2022/03/18 02:45:48;;;;;;;25.33;20.70;;;;;;;5.58;58.49;100890.84;5027343;28;20046;-65
2022/03/18 02:48:20;;;;;;;28.45;21.38;;;;;;;5.62;57.82;100889.06;5027312;28;20042;-66
2022/03/18 02:50:53;;;;;;;28.77;22.48;;;;;;;5.61;57.86;100887.31;5027000;28;20042;-66
2022/03/18 02:53:27;;;;;;;25.88;21.25;;;;;;;5.51;58.02;100891.78;5027111;28;20049;-66
2022/03/18 02:55:59;;;;;;;30.77;21.98;;;;;;;5.52;58.16;100897.94;5026724;28;20050;-66
2022/03/18 02:58:32;;;;;;;25.90;20.73;;;;;;;5.42;58.68;100897.16;5027128;28;20060;-65
2022/03/18 03:01:04;;;;;;;26.92;21.63;;;;;;;5.34;58.25;100893.72;5026812;28;20042;-66
2022/03/18 03:03:37;;;;;;;26.88;20.42;;;;;;;5.35;58.31;100900.72;5027016;28;20045;-66
2022/03/18 03:09:00;;;;;;;29.50;22.90;;;;;;;5.42;58.50;100908.53;5026935;28;20042;-66
2022/03/18 03:11:33;;;;;;;26.27;20.27;;;;;;;5.42;58.08;100908.53;5026641;28;20041;-65
2022/03/18 03:14:06;;;;;;;26.17;21.25;;;;;;;5.40;58.39;100915.56;5026842;28;20041;-66
2022/03/18 03:16:38;;;;;;;30.02;21.40;;;;;;;5.41;58.32;100925.19;5026503;28;20042;-65
2022/03/18 03:19:12;;;;;;;25.83;20.48;;;;;;;5.40;58.29;100919.94;5026479;28;20206;-65
2022/03/18 03:21:45;;;;;;;31.25;21.25;;;;;;;5.31;58.95;100928.78;5026736;28;20042;-66
2022/03/18 03:24:18;;;;;;;28.40;21.63;;;;;;;5.26;59.03;100925.34;5026384;28;20045;-66
2022/03/18 03:26:50;;;;;;;27.63;21.00;;;;;;;5.26;59.68;100925.34;5026621;28;20060;-66
2022/03/18 03:29:23;;;;;;;26.83;21.73;;;;;;;5.35;58.65;100930.50;5027109;28;20049;-66
2022/03/18 03:31:55;;;;;;;30.48;22.05;;;;;;;5.31;59.47;100934.06;5026444;28;20042;-66
2022/03/18 03:34:29;;;;;;;26.95;20.90;;;;;;;5.28;58.79;100931.44;5026493;28;20049;-66
2022/03/18 03:36:58;;;;;;;27.65;22.65;;;;;;;5.24;59.12;100940.25;5026472;28;20061;-66
2022/03/18 03:39:29;;;;;;;25.80;20.80;;;;;;;5.19;59.18;100947.28;5026379;28;20076;-66
2022/03/18 03:41:58;;;;;;;25.05;20.10;;;;;;;5.20;59.63;100946.41;5026335;28;20042;-66
2022/03/18 03:44:28;;;;;;;26.45;19.50;;;;;;;5.16;59.57;100952.56;5026314;28;20042;-66
2022/03/18 03:46:59;;;;;;;27.05;20.33;;;;;;;5.16;59.84;100952.56;5026256;28;20340;-66
2022/03/18 03:49:29;;;;;;;28.27;21.08;;;;;;;5.15;60.13;100956.09;5026204;28;20041;-66
2022/03/18 03:51:59;;;;;;;25.20;18.80;;;;;;;5.17;60.29;100954.31;5026084;28;20049;-66
2022/03/18 03:54:31;;;;;;;30.00;20.55;;;;;;;5.21;60.18;100965.69;5025261;28;20041;-66
2022/03/18 03:57:00;;;;;;;22.88;17.17;;;;;;;5.23;60.09;100963.91;5025798;28;20202;-66
2022/03/18 03:59:30;;;;;;;29.40;19.38;;;;;;;5.19;60.27;100970.09;5026065;28;20053;-66
2022/03/18 04:02:02;;;;;;;25.25;18.98;;;;;;;5.12;60.74;100983.28;5025801;28;20045;-67
2022/03/18 04:04:31;;;;;;;24.77;19.92;;;;;;;5.17;60.71;100980.59;5025925;28;20049;-66
2022/03/18 04:07:01;;;;;;;26.55;17.98;;;;;;;5.21;61.00;100998.09;5025726;28;20092;-66
2022/03/18 04:09:32;;;;;;;25.45;20.17;;;;;;;5.16;61.20;100999.03;5024896;28;20046;-66
2022/03/18 04:12:01;;;;;;;29.23;19.45;;;;;;;5.13;60.49;100999.91;5025716;28;20199;-66
2022/03/18 04:14:31;;;;;;;24.40;19.08;;;;;;;5.12;61.06;100995.53;5025942;28;20088;-66
2022/03/18 04:17:02;;;;;;;27.08;20.77;;;;;;;5.09;61.98;101003.44;5025846;28;20049;-66
2022/03/18 04:19:32;;;;;;;24.35;19.50;;;;;;;5.12;61.13;101006.06;5024808;28;20092;-66
2022/03/18 04:22:02;;;;;;;29.17;19.80;;;;;;;5.15;61.02;101005.16;5028707;28;20049;-66
2022/03/18 04:24:34;;;;;;;27.63;21.92;;;;;;;5.13;61.60;101005.16;5032399;28;20046;-66
2022/03/18 04:27:03;;;;;;;27.60;21.60;;;;;;;5.13;61.56;101000.78;5032382;28;20336;-66
2022/03/18 04:29:33;;;;;;;29.10;19.70;;;;;;;5.12;61.58;101003.41;5032077;28;20205;-66
2022/03/18 04:32:04;;;;;;;26.88;21.17;;;;;;;5.13;61.11;101007.78;5032261;28;20049;-66
2022/03/18 04:34:33;;;;;;;26.75;20.67;;;;;;;5.05;61.74;101014.84;5032238;28;20053;-66
2022/03/18 04:37:04;;;;;;;25.65;19.63;;;;;;;5.08;61.19;101017.47;5032291;28;20112;-66
2022/03/18 04:39:35;;;;;;;27.55;19.55;;;;;;;5.09;61.73;101013.97;5032288;28;20048;-66
2022/03/18 04:42:05;;;;;;;27.73;20.42;;;;;;;4.97;62.21;101016.66;5032013;28;20205;-66
2022/03/18 04:44:34;;;;;;;31.00;23.02;;;;;;;4.91;62.65;101024.56;5032206;28;20092;-66
2022/03/18 04:47:05;;;;;;;29.38;21.90;;;;;;;4.81;62.92;101032.47;5032188;28;20042;-66
2022/03/18 04:49:35;;;;;;;29.40;20.73;;;;;;;4.81;63.34;101026.34;5032185;28;20090;-66
2022/03/18 04:52:06;;;;;;;34.58;21.83;;;;;;;4.83;62.76;101040.34;5031904;28;20209;-66
2022/03/18 04:54:37;;;;;;;26.75;20.50;;;;;;;4.82;62.58;101042.09;5032392;28;20049;-66
2022/03/18 04:57:18;;;;;;;32.38;22.13;;;;;;;4.84;63.06;101046.47;5032126;28;20041;-66
2022/03/18 04:59:53;;;;;;;32.10;22.30;;;;;;;4.88;62.66;101051.72;5032108;28;20061;-66
2022/03/18 05:02:26;;;;;;;31.15;22.40;;;;;;;4.84;62.94;101051.72;5032112;28;20038;-66
2022/03/18 05:04:59;;;;;;;34.00;23.98;;;;;;;4.74;63.13;101054.41;5031755;28;20042;-66
2022/03/18 05:07:31;;;;;;;31.15;21.73;;;;;;;4.70;63.09;101052.66;5031853;28;20042;-66
2022/03/18 05:10:06;;;;;;;30.88;22.25;;;;;;;4.58;63.56;101031.72;5031837;28;20053;-66
2022/03/18 05:12:39;;;;;;;31.45;23.42;;;;;;;4.77;62.55;101064.88;5031611;28;20042;-66
2022/03/18 05:15:11;;;;;;;27.45;21.30;;;;;;;3.34;64.05;100839.69;5031656;28;20049;-66
2022/03/18 05:17:49;;;;;;;34.08;24.35;;;;;;;4.64;64.56;101068.44;5031929;28;20049;-66
2022/03/18 05:20:22;;;;;;;31.83;24.25;;;;;;;4.59;63.89;101074.59;5031911;28;20205;-65
2022/03/18 05:22:55;;;;;;;32.08;23.80;;;;;;;4.52;63.98;101076.38;5031645;28;20049;-65
2022/03/18 05:25:28;;;;;;;30.90;22.98;;;;;;;4.32;64.62;101044.06;5031621;28;20048;-66
2022/03/18 05:28:01;;;;;;;32.92;23.38;;;;;;;4.63;63.36;101078.97;5031531;28;20206;-66
2022/03/18 05:30:33;;;;;;;31.50;23.60;;;;;;;4.61;63.68;101078.09;5030807;28;20145;-66
2022/03/18 05:33:05;;;;;;;31.92;23.98;;;;;;;4.58;64.55;101075.47;5030743;28;20045;-66
2022/03/18 05:35:37;;;;;;;32.30;24.83;;;;;;;4.54;64.61;101079.00;5028739;28;20301;-66
2022/03/18 05:38:10;;;;;;;33.67;23.17;;;;;;;4.49;63.91;101079.88;5028414;28;20038;-66
2022/03/18 05:40:43;;;;;;;31.40;23.42;;;;;;;4.54;63.39;101089.50;5028340;28;20057;-66
2022/03/18 05:43:16;;;;;;;27.83;22.83;;;;;;;4.54;64.28;101092.13;5028330;28;20046;-66
2022/03/18 05:45:48;;;;;;;29.40;22.42;;;;;;;4.36;63.70;101059.78;5028229;28;20042;-66
2022/03/18 05:48:21;;;;;;;29.35;22.80;;;;;;;4.49;64.76;101103.50;5028477;28;20041;-66
2022/03/18 05:50:53;;;;;;;30.42;22.30;;;;;;;4.53;64.09;101101.75;5028134;28;20210;-66
2022/03/18 05:53:25;;;;;;;32.13;23.95;;;;;;;4.55;64.00;101102.63;5028238;28;20045;-66
2022/03/18 05:58:50;;;;;;;33.60;24.45;;;;;;;4.51;64.00;101106.13;5028104;28;20049;-66
2022/03/18 06:01:23;;;;;;;33.85;24.45;;;;;;;4.46;64.70;101114.00;5027806;28;20042;-66
2022/03/18 06:03:56;;;;;;;32.85;23.63;;;;;;;4.49;64.22;101116.63;5027867;28;20045;-66
2022/03/18 06:06:28;;;;;;;30.15;21.27;;;;;;;4.58;64.23;101118.38;5028069;28;20068;-66
2022/03/18 06:11:52;;;;;;;29.17;21.88;;;;;;;4.54;65.09;101123.63;5027863;28;20042;-66
2022/03/18 06:14:25;;;;;;;29.53;21.47;;;;;;;4.53;64.65;101124.50;5027652;28;20045;-66
2022/03/18 06:16:59;;;;;;;31.88;21.85;;;;;;;4.53;65.39;101135.00;5027557;28;20041;-66
2022/03/18 06:19:32;;;;;;;28.90;21.40;;;;;;;4.55;65.54;101133.25;5027633;28;20306;-66
2022/03/18 06:22:07;;;;;;;29.38;21.92;;;;;;;4.58;64.06;101130.63;5027214;28;20042;-66
2022/03/18 06:24:40;;;;;;;;;;;;;;;4.47;67.78;101141.16;5027864;28;20045;-66
2022/03/18 06:27:11;;;;;;;32.90;21.70;;;;;;;1.68;65.86;100668.75;5027666;28;20178;-66
2022/03/18 06:29:43;;;;;;;32.38;22.35;;;;;;;4.54;65.26;101145.50;5027656;28;20048;-66
2022/03/18 06:32:11;;;;;;;28.20;20.27;;;;;;;4.14;64.25;101090.41;5027357;28;20065;-66
2022/03/18 06:34:40;;;;;;;29.02;21.77;;;;;;;4.43;64.34;101114.03;5027438;28;20174;-66
2022/03/18 06:37:11;;;;;;;30.48;21.92;;;;;;;4.77;64.39;101156.81;5027381;28;20042;-66
2022/03/18 06:39:41;;;;;;;32.78;23.10;;;;;;;4.78;63.99;101158.56;5027165;28;20084;-66
2022/03/18 06:42:12;;;;;;;30.77;23.30;;;;;;;4.85;64.50;101159.44;5026662;28;20042;-66
2022/03/18 06:44:41;;;;;;;35.85;24.38;;;;;;;4.87;64.44;101159.44;5026739;28;20053;-66
2022/03/18 06:47:12;;;;;;;30.77;22.63;;;;;;;4.76;65.92;101162.09;5026931;28;20088;-66
2022/03/18 06:49:42;;;;;;;31.17;23.90;;;;;;;4.71;64.98;101163.84;5027011;28;20064;-66
2022/03/18 06:52:12;;;;;;;29.10;21.27;;;;;;;4.78;64.11;101171.72;5027225;28;20042;-68
2022/03/18 06:54:43;;;;;;;29.40;22.00;;;;;;;4.87;63.93;101176.06;5026806;28;20068;-66
2022/03/18 06:57:14;;;;;;;27.63;20.63;;;;;;;4.93;63.96;101178.72;5027089;28;20049;-66
2022/03/18 06:59:43;;;;;;;27.75;21.33;;;;;;;3.93;63.82;101085.19;5027062;28;20048;-66
2022/03/18 07:02:15;;;;;;;33.40;21.70;;;;;;;4.99;64.34;101176.06;5026962;28;20041;-66
2022/03/18 07:04:43;;;;;;;31.85;22.15;;;;;;;5.05;63.82;101175.16;5026942;28;20045;-66
2022/03/18 07:07:14;;;;;;;31.13;24.10;;;;;;;5.10;64.19;101184.78;5026137;28;20050;-66
2022/03/18 07:09:44;;;;;;;29.25;21.35;;;;;;;5.13;63.42;101189.16;5026885;28;20105;-66
2022/03/18 07:12:16;;;;;;;32.92;22.90;;;;;;;5.19;63.75;101196.13;5026592;28;20041;-66
2022/03/18 07:14:45;;;;;;;32.60;21.90;;;;;;;5.19;63.64;101191.75;5026623;28;20053;-66
2022/03/18 07:20:06;;;;;;;29.98;20.88;;;;;;;5.27;63.60;101192.59;5026440;28;20042;-65
2022/03/18 07:22:38;;;;;;;26.20;19.80;;;;;;;5.32;63.26;101196.06;5026087;28;20206;-66
2022/03/18 07:25:10;;;;;;;33.88;23.77;;;;;;;5.29;64.02;101200.47;5026314;28;20352;-66
2022/03/18 07:27:44;;;;;;;30.58;20.77;;;;;;;5.39;63.20;101197.78;5026407;28;20041;-65
2022/03/18 07:30:16;;;;;;;32.70;21.92;;;;;;;5.49;62.74;101198.63;5025905;28;20042;-65
2022/03/18 07:32:48;;;;;;;32.72;21.95;;;;;;;5.56;62.59;101209.97;5026310;28;20049;-66
2022/03/18 07:35:21;;;;;;;32.55;22.35;;;;;;;5.63;62.86;101206.44;5026300;28;20045;-67
2022/03/18 07:37:53;;;;;;;29.77;22.27;;;;;;;5.64;62.91;101202.94;5026084;28;20045;-66
2022/03/18 07:40:26;;;;;;;28.20;21.25;;;;;;;5.68;62.72;101207.28;5026012;28;20053;-66
2022/03/18 07:43:00;;;;;;;27.88;20.75;;;;;;;5.72;62.59;101207.25;5026276;28;20049;-66
2022/03/18 07:45:33;;;;;;;29.98;24.27;;;;;;;5.80;62.49;101209.84;5025881;28;20048;-66
2022/03/18 07:48:08;;;;;;;34.95;24.58;;;;;;;5.89;62.15;101208.91;5026216;28;20213;-66
2022/03/18 07:50:40;;;;;;;32.08;22.80;;;;;;;5.93;62.31;101214.16;5025936;28;20042;-66
2022/03/18 07:53:13;;;;;;;31.85;23.52;;;;;;;5.95;61.99;101216.75;5026088;28;20049;-66
2022/03/18 07:55:45;;;;;;;29.33;22.30;;;;;;;5.92;62.74;101222.91;5025398;28;20062;-66
2022/03/18 07:58:19;;;;;;;29.67;22.45;;;;;;;5.88;62.63;101222.94;5025232;28;20210;-66
2022/03/18 08:00:51;;;;;;;28.80;21.13;;;;;;;5.99;62.07;101226.38;5025897;28;20049;-66
2022/03/18 08:03:23;;;;;;;35.15;23.05;;;;;;;6.09;61.70;101228.06;5025543;28;20209;-66
2022/03/18 08:05:56;;;;;;;34.15;24.02;;;;;;;6.19;62.13;101226.25;5024668;28;20068;-66
2022/03/18 08:08:28;;;;;;;32.13;24.20;;;;;;;6.23;61.30;101225.34;5025661;28;20042;-66
2022/03/18 08:11:01;;;;;;;29.40;21.63;;;;;;;6.29;60.94;101233.19;5025655;28;20049;-66
2022/03/18 08:13:34;;;;;;;35.85;25.52;;;;;;;6.33;61.47;101240.19;5025532;28;20042;-66
2022/03/18 08:16:07;;;;;;;31.75;23.85;;;;;;;6.38;61.55;101238.38;5025539;28;20206;-66
2022/03/18 08:18:39;;;;;;;34.15;23.73;;;;;;;6.40;61.10;101237.47;5025521;28;20045;-66
2022/03/18 08:21:12;;;;;;;32.33;24.25;;;;;;;6.45;60.88;101245.34;5025843;28;20048;-66
2022/03/18 08:23:44;;;;;;;30.73;23.85;;;;;;;6.47;61.03;101242.69;5025819;28;20042;-67
2022/03/18 08:26:16;;;;;;;30.92;22.88;;;;;;;6.52;60.53;101243.53;5025427;28;20045;-66
2022/03/18 08:28:50;;;;;;;32.63;23.10;;;;;;;6.54;60.57;101247.91;5025459;28;20042;-66
2022/03/18 08:31:22;;;;;;;34.20;24.63;;;;;;;6.63;60.51;101245.19;5025219;28;20202;-67
2022/03/18 08:33:55;;;;;;;31.20;23.67;;;;;;;6.50;60.58;101219.84;5025405;28;20053;-66
2022/03/18 08:36:27;;;;;;;34.50;24.38;;;;;;;6.73;60.25;101249.47;5025599;28;20050;-66
2022/03/18 08:38:59;;;;;;;32.13;23.58;;;;;;;6.79;60.18;101250.31;5025375;28;20301;-66
2022/03/18 08:41:31;;;;;;;29.13;22.02;;;;;;;6.93;59.64;101256.34;5025538;28;20060;-66
2022/03/18 08:44:06;;;;;;;33.00;23.45;;;;;;;6.98;60.19;101263.31;5025261;28;20183;-66
2022/03/18 08:46:38;;;;;;;28.60;20.95;;;;;;;6.99;59.72;101262.44;5025261;28;20298;-66
2022/03/18 08:49:10;;;;;;;27.60;20.20;;;;;;;7.01;59.96;101262.41;5025169;28;20042;-66
2022/03/18 08:51:43;;;;;;;30.80;23.63;;;;;;;7.03;59.82;101258.88;5025423;28;20038;-66
2022/03/18 08:54:15;;;;;;;30.73;22.25;;;;;;;7.17;59.29;101266.66;5024254;28;20053;-66
2022/03/18 08:56:47;;;;;;;31.85;23.85;;;;;;;7.25;59.54;101272.72;5024939;28;20062;-66
2022/03/18 08:59:23;;;;;;;35.60;26.40;;;;;;;7.32;59.25;101269.09;5025182;28;20092;-66
2022/03/18 09:01:55;;;;;;;33.05;22.73;;;;;;;7.46;58.76;101274.25;5025241;28;20046;-66
2022/03/18 09:04:27;;;;;;;29.05;22.10;;;;;;;7.52;58.85;101276.81;5025279;28;20101;-66
2022/03/18 09:06:59;;;;;;;33.17;23.55;;;;;;;4.32;58.62;100713.34;5025266;28;20336;-66
2022/03/18 09:09:32;;;;;;;33.60;25.83;;;;;;;7.63;58.56;101284.59;5028527;28;20049;-66
2022/03/18 09:12:04;;;;;;;28.30;22.00;;;;;;;7.74;58.43;101276.53;5029012;28;20045;-66
2022/03/18 09:14:38;;;;;;;29.63;23.88;;;;;;;7.79;58.19;101280.00;5028637;28;20097;-66
2022/03/18 09:17:10;;;;;;;33.13;22.95;;;;;;;7.77;58.50;101287.94;5028948;28;20046;-66
2022/03/18 09:19:42;;;;;;;29.80;23.40;;;;;;;7.83;58.70;101294.91;5027587;28;20359;-67
2022/03/18 09:22:16;;;;;;;34.58;24.38;;;;;;;7.84;58.61;101284.31;5028377;28;20088;-67
2022/03/18 09:24:48;;;;;;;29.80;22.92;;;;;;;7.95;58.30;101282.41;5028422;28;20104;-67
2022/03/18 09:27:20;;;;;;;30.02;23.02;;;;;;;8.00;58.11;101288.50;5028117;28;20042;-66
2022/03/18 09:29:52;;;;;;;32.10;25.83;;;;;;;8.12;58.07;101297.16;5028541;28;20044;-66
2022/03/18 09:32:20;;;;;;;33.47;25.25;;;;;;;8.16;57.93;101305.00;5028541;28;20042;-66
2022/03/18 09:34:51;;;;;;;36.58;25.92;;;;;;;8.05;58.38;101295.47;5028533;28;20064;-66
2022/03/18 09:37:21;;;;;;;32.40;25.55;;;;;;;8.09;58.10;101298.06;5028502;28;20072;-67
2022/03/18 09:39:51;;;;;;;35.00;26.20;;;;;;;8.24;58.12;101302.25;5028420;28;20153;-66
2022/03/18 09:42:22;;;;;;;35.40;27.10;;;;;;;8.35;57.87;101303.84;5028437;28;20049;-66
2022/03/18 09:44:53;;;;;;;37.55;27.38;;;;;;;8.45;57.59;101295.75;5028251;28;20245;-67
2022/03/18 09:47:22;;;;;;;36.47;26.85;;;;;;;8.44;57.59;101300.19;5028024;28;20044;-66
2022/03/18 09:49:52;;;;;;;33.55;26.00;;;;;;;8.51;57.44;101304.47;5027973;28;20042;-66
2022/03/18 09:52:23;;;;;;;32.83;25.30;;;;;;;8.56;57.34;101307.03;5027978;28;20042;-66
2022/03/18 09:54:53;;;;;;;33.00;25.65;;;;;;;8.75;57.10;101303.19;5027763;28;20061;-66
2022/03/18 09:57:23;;;;;;;36.78;25.30;;;;;;;8.85;56.93;101307.44;5027847;28;20037;-67
2022/03/18 09:59:55;;;;;;;33.25;25.60;;;;;;;8.79;57.08;101311.94;5027882;28;20072;-67
2022/03/18 10:02:27;;;;;;;32.72;24.85;;;;;;;8.72;57.33;101312.94;5027785;28;20041;-66
2022/03/18 10:05:01;;;;;;;35.70;24.48;;;;;;;8.86;57.15;101309.19;5027591;28;20042;-66
2022/03/18 10:07:30;;;;;;;32.17;23.65;;;;;;;7.58;57.01;101077.97;5028026;28;20045;-67
2022/03/18 10:10:15;;;;;;;33.08;24.85;;;;;;;8.89;57.12;101313.53;5027145;28;20075;-66
2022/03/18 10:12:48;;;;;;;26.83;21.55;;;;;;;8.95;57.22;101313.44;5027683;28;20042;-67
2022/03/18 10:15:26;;;;;;;30.23;24.13;;;;;;;9.09;56.90;101306.13;5027894;28;20046;-67
2022/03/18 10:18:00;;;;;;;33.72;24.15;;;;;;;9.11;56.69;101304.31;5027351;28;20042;-66
2022/03/18 10:20:34;;;;;;;32.22;24.17;;;;;;;9.15;56.77;101306.00;5026593;28;20108;-67
2022/03/18 10:23:19;;;;;;;;;;;;;;;9.10;56.72;101307.88;5028018;28;20088;-67
2022/03/18 10:25:52;;;;;;;31.23;22.17;;;;;;;9.25;56.61;101307.63;5027615;28;19917;-67
2022/03/18 10:28:36;;;;;;;31.85;25.33;;;;;;;9.31;56.20;101304.84;5027540;28;20045;-66
2022/03/18 10:31:16;;;;;;;29.15;21.77;;;;;;;9.27;55.89;101278.47;5026420;28;20048;-67
2022/03/18 10:39:33;;;;;;;33.00;24.50;;;;;;;9.62;55.32;101314.88;5026923;28;20093;-66
2022/03/18 10:42:09;;;;;;;26.70;21.73;;;;;;;9.66;55.49;101319.22;5026050;28;20045;-67
2022/03/18 10:44:47;;;;;;;29.33;23.48;;;;;;;9.57;54.62;101327.31;5027034;28;20245;-67
2022/03/18 10:47:31;;;;;;;26.58;20.85;;;;;;;9.53;54.97;101320.34;5027218;28;20237;-67
2022/03/18 10:50:21;;;;;;;29.75;23.05;;;;;;;9.63;54.85;101317.50;5026708;28;20325;-67
2022/03/18 10:53:02;;;;;;;29.60;23.13;;;;;;;9.64;55.08;101323.66;5025940;28;20041;-67
2022/03/18 10:55:36;;;;;;;27.55;23.42;;;;;;;9.80;54.96;101316.28;5026401;28;20107;-66
2022/03/18 10:58:11;;;;;;;28.80;23.27;;;;;;;9.69;53.88;101297.97;5026800;28;20046;-66
2022/03/18 11:00:45;;;;;;;29.38;20.67;;;;;;;9.97;54.20;101323.88;5026010;28;20050;-67
2022/03/18 11:03:19;;;;;;;28.25;21.77;;;;;;;10.02;54.20;101321.97;5026636;28;20241;-67
2022/03/18 11:05:52;;;;;;;28.63;22.25;;;;;;;9.36;54.08;101225.38;5026236;28;20056;-67
2022/03/18 11:08:35;;;;;;;27.27;20.00;;;;;;;9.83;53.30;101273.84;5025543;28;20104;-67
2022/03/18 11:11:15;;;;;;;23.63;18.88;;;;;;;10.18;53.01;101312.78;5026470;28;20088;-67
2022/03/18 11:13:50;;;;;;;28.77;22.45;;;;;;;10.35;52.98;101315.94;5026361;28;20042;-67
2022/03/18 11:16:26;;;;;;;25.67;20.13;;;;;;;10.36;52.46;101315.03;5026338;28;20041;-66
2022/03/18 11:19:01;;;;;;;26.35;20.75;;;;;;;10.47;52.29;101315.63;5025960;28;20104;-66
2022/03/18 11:21:38;;;;;;;26.75;21.00;;;;;;;10.52;52.51;101310.22;5026288;28;20106;-67
2022/03/18 11:24:13;;;;;;;28.08;22.15;;;;;;;10.40;51.37;101315.81;5026281;28;20233;-66
2022/03/18 11:26:47;;;;;;;;;;;;;;;10.40;50.75;101319.34;5026889;28;20073;-67
2022/03/18 11:29:23;;;;;;;31.70;22.80;;;;;;;10.03;52.12;101246.91;5026427;28;19917;-66
2022/03/18 11:32:20;;;;;;;29.13;22.38;;;;;;;10.50;50.13;101309.41;5026124;28;20054;-66
2022/03/18 11:34:58;;;;;;;26.80;22.33;;;;;;;10.43;50.92;101324.56;5025433;28;20049;-66
2022/03/18 11:37:29;;;;;;;25.63;20.02;;;;;;;10.57;51.64;101314.50;5025869;28;20100;-66
2022/03/18 11:40:30;;;;;;;28.95;22.40;;;;;;;10.72;50.30;101305.31;5026621;28;20158;-66
2022/03/18 11:43:30;;;;;;;25.05;19.88;;;;;;;10.79;49.76;101306.94;5025704;28;20183;-67
2022/03/18 11:46:29;;;;;;;27.75;20.67;;;;;;;10.76;48.75;101301.66;5025815;28;20091;-67
2022/03/18 11:49:06;;;;;;;26.80;21.42;;;;;;;10.80;50.00;101308.69;4993813;28;20222;-67
2022/03/18 11:51:43;;;;;;;28.38;21.17;;;;;;;10.91;49.82;101308.41;5025795;28;20306;-67
2022/03/18 11:54:24;;;;;;;25.15;20.13;;;;;;;10.94;50.37;101313.63;5025744;28;20042;-67
2022/03/18 11:56:57;;;;;;;28.60;23.40;;;;;;;10.76;50.13;101306.97;5025462;28;20049;-67
2022/03/18 11:59:43;;;;;;;29.70;22.83;;;;;;;10.77;49.89;101273.38;5026062;28;20045;-67
2022/03/18 12:02:15;;;;;;;28.52;22.88;;;;;;;11.10;49.94;101296.41;5025767;28;20049;-66
2022/03/18 12:04:50;;;;;;;30.17;24.63;;;;;;;11.07;49.42;101296.47;5025551;28;20041;-66
2022/03/18 12:07:27;;;;;;;28.17;22.60;;;;;;;11.07;50.43;101290.31;5025711;28;20104;-66
2022/03/18 12:09:59;;;;;;;31.83;24.23;;;;;;;11.13;50.28;101290.13;5025796;28;20108;-66